sensor_id;sensor_type;location;lat;lon;timestamp;temperature;humidity
35804;DHT22;21924;51.934;7.414;2023-05-01T00:01:12;10.30;99.90
35804;DHT22;21924;51.934;7.414;2023-05-01T00:03:57;10.30;99.90
35804;DHT22;21924;51.934;7.414;2023-05-01T00:06:41;10.40;99.90
35804;DHT22;21924;51.934;7.414;2023-05-01T00:09:28;10.30;99.90
35804;DHT22;21924;51.934;7.414;2023-05-01T00:12:12;10.30;99.90
35804;DHT22;21924;51.934;7.414;2023-05-01T00:14:56;10.30;99.90
35804;DHT22;21924;51.934;7.414;2023-05-01T00:17:41;10.30;99.90
35804;DHT22;21924;51.934;7.414;2023-05-01T00:20:26;10.20;99.90
35804;DHT22;21924;51.934;7.414;2023-05-01T00:23:11;10.10;99.90
35804;DHT22;21924;51.934;7.414;2023-05-01T00:25:55;10.20;99.90
35804;DHT22;21924;51.934;7.414;2023-05-01T00:28:40;10.10;99.90
35804;DHT22;21924;51.934;7.414;2023-05-01T00:31:24;10.10;99.90
35804;DHT22;21924;51.934;7.414;2023-05-01T00:34:09;10.10;99.90
35804;DHT22;21924;51.934;7.414;2023-05-01T00:36:54;10.10;99.90
35804;DHT22;21924;51.934;7.414;2023-05-01T00:39:38;10.00;99.90
35804;DHT22;21924;51.934;7.414;2023-05-01T00:42:23;10.00;99.90
35804;DHT22;21924;51.934;7.414;2023-05-01T00:45:07;9.90;99.90
35804;DHT22;21924;51.934;7.414;2023-05-01T00:47:51;9.90;99.90
35804;DHT22;21924;51.934;7.414;2023-05-01T00:50:36;9.90;99.90
35804;DHT22;21924;51.934;7.414;2023-05-01T00:53:22;9.80;99.90
35804;DHT22;21924;51.934;7.414;2023-05-01T00:56:07;9.80;99.90
35804;DHT22;21924;51.934;7.414;2023-05-01T00:58:52;9.80;99.90
35804;DHT22;21924;51.934;7.414;2023-05-01T01:01:37;9.80;99.90
35804;DHT22;21924;51.934;7.414;2023-05-01T01:04:21;9.80;99.90
35804;DHT22;21924;51.934;7.414;2023-05-01T01:07:23;9.80;99.90
35804;DHT22;21924;51.934;7.414;2023-05-01T01:10:30;9.80;99.90
35804;DHT22;21924;51.934;7.414;2023-05-01T01:13:48;9.80;99.90
35804;DHT22;21924;51.934;7.414;2023-05-01T01:16:44;9.80;99.90
35804;DHT22;21924;51.934;7.414;2023-05-01T01:22:28;9.70;99.90
35804;DHT22;21924;51.934;7.414;2023-05-01T01:28:21;9.60;99.90
35804;DHT22;21924;51.934;7.414;2023-05-01T01:31:20;9.60;99.90
35804;DHT22;21924;51.934;7.414;2023-05-01T01:34:20;9.60;99.90
35804;DHT22;21924;51.934;7.414;2023-05-01T01:37:11;9.60;99.90
35804;DHT22;21924;51.934;7.414;2023-05-01T01:40:13;9.50;99.90
35804;DHT22;21924;51.934;7.414;2023-05-01T01:43:02;9.40;99.90
35804;DHT22;21924;51.934;7.414;2023-05-01T01:45:53;9.50;99.90
35804;DHT22;21924;51.934;7.414;2023-05-01T01:48:42;9.40;99.90
35804;DHT22;21924;51.934;7.414;2023-05-01T01:51:29;9.30;99.90
35804;DHT22;21924;51.934;7.414;2023-05-01T01:54:16;9.30;99.90
35804;DHT22;21924;51.934;7.414;2023-05-01T01:57:02;9.20;99.90
35804;DHT22;21924;51.934;7.414;2023-05-01T01:59:50;9.30;99.90
35804;DHT22;21924;51.934;7.414;2023-05-01T02:02:36;9.30;99.90
35804;DHT22;21924;51.934;7.414;2023-05-01T02:05:23;9.40;99.90
35804;DHT22;21924;51.934;7.414;2023-05-01T02:08:09;9.30;99.90
35804;DHT22;21924;51.934;7.414;2023-05-01T02:10:55;9.20;99.90
35804;DHT22;21924;51.934;7.414;2023-05-01T02:13:43;9.30;99.90
35804;DHT22;21924;51.934;7.414;2023-05-01T02:16:29;9.40;99.90
35804;DHT22;21924;51.934;7.414;2023-05-01T02:19:14;9.40;99.90
35804;DHT22;21924;51.934;7.414;2023-05-01T02:22:00;9.30;99.90
35804;DHT22;21924;51.934;7.414;2023-05-01T02:24:46;9.20;99.90
35804;DHT22;21924;51.934;7.414;2023-05-01T02:27:35;9.10;99.90
35804;DHT22;21924;51.934;7.414;2023-05-01T02:30:21;9.10;99.90
35804;DHT22;21924;51.934;7.414;2023-05-01T02:33:08;9.10;99.90
35804;DHT22;21924;51.934;7.414;2023-05-01T02:35:52;9.10;99.90
35804;DHT22;21924;51.934;7.414;2023-05-01T02:38:36;9.00;99.90
35804;DHT22;21924;51.934;7.414;2023-05-01T02:41:21;8.90;99.90
35804;DHT22;21924;51.934;7.414;2023-05-01T02:44:09;8.90;99.90
35804;DHT22;21924;51.934;7.414;2023-05-01T02:46:55;8.90;99.90
35804;DHT22;21924;51.934;7.414;2023-05-01T02:49:40;8.80;99.90
35804;DHT22;21924;51.934;7.414;2023-05-01T02:52:27;8.80;99.90
35804;DHT22;21924;51.934;7.414;2023-05-01T02:55:11;8.80;99.90
35804;DHT22;21924;51.934;7.414;2023-05-01T02:57:59;8.70;99.90
35804;DHT22;21924;51.934;7.414;2023-05-01T03:00:43;8.70;99.90
35804;DHT22;21924;51.934;7.414;2023-05-01T03:03:28;8.70;99.90
35804;DHT22;21924;51.934;7.414;2023-05-01T03:06:12;8.70;99.90
35804;DHT22;21924;51.934;7.414;2023-05-01T03:08:57;8.80;99.90
35804;DHT22;21924;51.934;7.414;2023-05-01T03:11:41;8.90;99.90
35804;DHT22;21924;51.934;7.414;2023-05-01T03:14:26;8.90;99.90
35804;DHT22;21924;51.934;7.414;2023-05-01T03:17:11;8.90;99.90
35804;DHT22;21924;51.934;7.414;2023-05-01T03:19:56;9.00;99.90
35804;DHT22;21924;51.934;7.414;2023-05-01T03:22:40;9.00;99.90
35804;DHT22;21924;51.934;7.414;2023-05-01T03:25:24;9.00;99.90
35804;DHT22;21924;51.934;7.414;2023-05-01T03:28:08;9.00;99.90
35804;DHT22;21924;51.934;7.414;2023-05-01T03:30:53;9.00;99.90
35804;DHT22;21924;51.934;7.414;2023-05-01T03:33:37;9.00;99.90
35804;DHT22;21924;51.934;7.414;2023-05-01T03:36:23;9.00;99.90
35804;DHT22;21924;51.934;7.414;2023-05-01T03:39:07;9.10;99.90
35804;DHT22;21924;51.934;7.414;2023-05-01T03:41:52;9.00;99.90
35804;DHT22;21924;51.934;7.414;2023-05-01T03:44:36;9.10;99.90
35804;DHT22;21924;51.934;7.414;2023-05-01T03:47:20;9.10;99.90
35804;DHT22;21924;51.934;7.414;2023-05-01T03:50:06;9.00;99.90
35804;DHT22;21924;51.934;7.414;2023-05-01T03:52:50;9.10;99.90
35804;DHT22;21924;51.934;7.414;2023-05-01T03:55:34;9.00;99.90
35804;DHT22;21924;51.934;7.414;2023-05-01T03:58:19;9.00;99.90
35804;DHT22;21924;51.934;7.414;2023-05-01T04:01:05;8.90;99.90
35804;DHT22;21924;51.934;7.414;2023-05-01T04:03:49;8.90;99.90
35804;DHT22;21924;51.934;7.414;2023-05-01T04:06:34;8.90;99.90
35804;DHT22;21924;51.934;7.414;2023-05-01T04:09:18;8.90;99.90
35804;DHT22;21924;51.934;7.414;2023-05-01T04:12:03;8.90;99.90
35804;DHT22;21924;51.934;7.414;2023-05-01T04:14:47;8.80;99.90
35804;DHT22;21924;51.934;7.414;2023-05-01T04:17:31;8.80;99.90
35804;DHT22;21924;51.934;7.414;2023-05-01T04:20:16;8.70;99.90
35804;DHT22;21924;51.934;7.414;2023-05-01T04:23:02;8.70;99.90
35804;DHT22;21924;51.934;7.414;2023-05-01T04:25:46;8.80;99.90
35804;DHT22;21924;51.934;7.414;2023-05-01T04:28:30;8.80;99.90
35804;DHT22;21924;51.934;7.414;2023-05-01T04:31:14;8.70;99.90
35804;DHT22;21924;51.934;7.414;2023-05-01T04:33:59;8.70;99.90
35804;DHT22;21924;51.934;7.414;2023-05-01T04:36:44;8.70;99.90
35804;DHT22;21924;51.934;7.414;2023-05-01T04:39:28;8.70;99.90
35804;DHT22;21924;51.934;7.414;2023-05-01T04:42:12;8.80;99.90
35804;DHT22;21924;51.934;7.414;2023-05-01T04:44:57;8.70;99.90
35804;DHT22;21924;51.934;7.414;2023-05-01T04:47:44;8.70;99.90
35804;DHT22;21924;51.934;7.414;2023-05-01T04:50:28;8.70;99.90
35804;DHT22;21924;51.934;7.414;2023-05-01T04:53:12;8.70;99.90
35804;DHT22;21924;51.934;7.414;2023-05-01T04:55:57;8.70;99.90
35804;DHT22;21924;51.934;7.414;2023-05-01T04:58:41;8.70;99.90
35804;DHT22;21924;51.934;7.414;2023-05-01T05:01:26;8.80;99.90
35804;DHT22;21924;51.934;7.414;2023-05-01T05:04:10;8.80;99.90
35804;DHT22;21924;51.934;7.414;2023-05-01T05:06:54;8.80;99.90
35804;DHT22;21924;51.934;7.414;2023-05-01T05:09:39;8.80;99.90
35804;DHT22;21924;51.934;7.414;2023-05-01T05:12:23;8.80;99.90
35804;DHT22;21924;51.934;7.414;2023-05-01T05:15:07;8.90;99.90
35804;DHT22;21924;51.934;7.414;2023-05-01T05:17:52;8.90;99.90
35804;DHT22;21924;51.934;7.414;2023-05-01T05:20:39;9.00;99.90
35804;DHT22;21924;51.934;7.414;2023-05-01T05:23:24;9.00;99.90
35804;DHT22;21924;51.934;7.414;2023-05-01T05:26:08;9.00;99.90
35804;DHT22;21924;51.934;7.414;2023-05-01T05:28:52;9.00;99.90
35804;DHT22;21924;51.934;7.414;2023-05-01T05:31:37;9.10;99.90
35804;DHT22;21924;51.934;7.414;2023-05-01T05:34:21;9.20;99.90
35804;DHT22;21924;51.934;7.414;2023-05-01T05:37:06;9.20;99.90
35804;DHT22;21924;51.934;7.414;2023-05-01T05:39:51;9.30;99.90
35804;DHT22;21924;51.934;7.414;2023-05-01T05:42:36;9.40;99.90
35804;DHT22;21924;51.934;7.414;2023-05-01T05:45:20;9.30;99.90
35804;DHT22;21924;51.934;7.414;2023-05-01T05:48:05;9.30;99.90
35804;DHT22;21924;51.934;7.414;2023-05-01T05:50:49;9.40;99.90
35804;DHT22;21924;51.934;7.414;2023-05-01T05:53:36;9.40;99.90
35804;DHT22;21924;51.934;7.414;2023-05-01T05:56:20;9.60;99.90
35804;DHT22;21924;51.934;7.414;2023-05-01T05:59:04;9.70;99.90
35804;DHT22;21924;51.934;7.414;2023-05-01T06:01:49;9.60;99.90
35804;DHT22;21924;51.934;7.414;2023-05-01T06:04:34;9.70;99.90
35804;DHT22;21924;51.934;7.414;2023-05-01T06:07:20;9.80;99.90
35804;DHT22;21924;51.934;7.414;2023-05-01T06:10:05;10.00;99.90
35804;DHT22;21924;51.934;7.414;2023-05-01T06:12:50;10.00;99.90
35804;DHT22;21924;51.934;7.414;2023-05-01T06:15:35;10.00;99.90
35804;DHT22;21924;51.934;7.414;2023-05-01T06:18:20;10.10;99.90
35804;DHT22;21924;51.934;7.414;2023-05-01T06:21:04;10.10;99.90
35804;DHT22;21924;51.934;7.414;2023-05-01T06:23:48;10.10;99.90
35804;DHT22;21924;51.934;7.414;2023-05-01T06:26:32;10.20;99.90
35804;DHT22;21924;51.934;7.414;2023-05-01T06:29:17;10.30;99.90
35804;DHT22;21924;51.934;7.414;2023-05-01T06:32:01;10.40;99.90
35804;DHT22;21924;51.934;7.414;2023-05-01T06:34:46;10.60;99.90
35804;DHT22;21924;51.934;7.414;2023-05-01T06:37:30;10.70;99.90
35804;DHT22;21924;51.934;7.414;2023-05-01T06:40:14;10.80;99.90
35804;DHT22;21924;51.934;7.414;2023-05-01T06:42:59;10.90;99.90
35804;DHT22;21924;51.934;7.414;2023-05-01T06:45:43;11.00;99.90
35804;DHT22;21924;51.934;7.414;2023-05-01T06:48:27;11.00;99.90
35804;DHT22;21924;51.934;7.414;2023-05-01T06:51:12;11.20;99.90
35804;DHT22;21924;51.934;7.414;2023-05-01T06:53:59;11.30;99.90
35804;DHT22;21924;51.934;7.414;2023-05-01T06:56:43;11.30;99.90
35804;DHT22;21924;51.934;7.414;2023-05-01T06:59:27;11.20;99.90
35804;DHT22;21924;51.934;7.414;2023-05-01T07:02:11;11.20;99.90
35804;DHT22;21924;51.934;7.414;2023-05-01T07:04:55;11.20;99.90
35804;DHT22;21924;51.934;7.414;2023-05-01T07:07:40;11.30;99.90
35804;DHT22;21924;51.934;7.414;2023-05-01T07:10:24;11.50;99.90
35804;DHT22;21924;51.934;7.414;2023-05-01T07:13:08;11.70;99.90
35804;DHT22;21924;51.934;7.414;2023-05-01T07:15:52;11.80;99.90
35804;DHT22;21924;51.934;7.414;2023-05-01T07:18:37;11.90;99.90
35804;DHT22;21924;51.934;7.414;2023-05-01T07:21:21;12.00;99.90
35804;DHT22;21924;51.934;7.414;2023-05-01T07:24:05;12.10;99.90
35804;DHT22;21924;51.934;7.414;2023-05-01T07:26:49;12.10;99.90
35804;DHT22;21924;51.934;7.414;2023-05-01T07:29:39;12.10;99.90
35804;DHT22;21924;51.934;7.414;2023-05-01T07:32:23;12.30;99.90
35804;DHT22;21924;51.934;7.414;2023-05-01T07:35:08;12.50;99.90
35804;DHT22;21924;51.934;7.414;2023-05-01T07:37:52;12.60;99.90
35804;DHT22;21924;51.934;7.414;2023-05-01T07:40:38;12.70;99.90
35804;DHT22;21924;51.934;7.414;2023-05-01T07:43:22;12.70;99.90
35804;DHT22;21924;51.934;7.414;2023-05-01T07:46:06;12.60;99.90
35804;DHT22;21924;51.934;7.414;2023-05-01T07:48:51;12.70;99.90
35804;DHT22;21924;51.934;7.414;2023-05-01T07:51:35;12.80;99.90
35804;DHT22;21924;51.934;7.414;2023-05-01T07:54:19;13.00;99.90
35804;DHT22;21924;51.934;7.414;2023-05-01T07:57:05;13.00;99.90
35804;DHT22;21924;51.934;7.414;2023-05-01T07:59:53;12.90;99.90
35804;DHT22;21924;51.934;7.414;2023-05-01T08:02:39;13.00;99.90
35804;DHT22;21924;51.934;7.414;2023-05-01T08:05:24;13.00;99.90
35804;DHT22;21924;51.934;7.414;2023-05-01T08:08:08;13.20;99.90
35804;DHT22;21924;51.934;7.414;2023-05-01T08:10:53;13.30;99.90
35804;DHT22;21924;51.934;7.414;2023-05-01T08:13:37;13.40;99.90
35804;DHT22;21924;51.934;7.414;2023-05-01T08:16:21;13.50;99.90
35804;DHT22;21924;51.934;7.414;2023-05-01T08:19:06;13.50;99.90
35804;DHT22;21924;51.934;7.414;2023-05-01T08:21:50;13.70;99.90
35804;DHT22;21924;51.934;7.414;2023-05-01T08:24:34;13.60;99.90
35804;DHT22;21924;51.934;7.414;2023-05-01T08:27:18;13.60;99.90
35804;DHT22;21924;51.934;7.414;2023-05-01T08:30:03;13.70;99.90
35804;DHT22;21924;51.934;7.414;2023-05-01T08:32:47;13.60;99.90
35804;DHT22;21924;51.934;7.414;2023-05-01T08:35:31;13.70;99.90
35804;DHT22;21924;51.934;7.414;2023-05-01T08:38:16;13.80;99.90
35804;DHT22;21924;51.934;7.414;2023-05-01T08:41:00;13.90;99.90
35804;DHT22;21924;51.934;7.414;2023-05-01T08:43:46;14.20;99.90
35804;DHT22;21924;51.934;7.414;2023-05-01T08:46:41;14.50;99.90
35804;DHT22;21924;51.934;7.414;2023-05-01T08:49:32;14.80;99.90
35804;DHT22;21924;51.934;7.414;2023-05-01T08:52:17;15.00;99.90
35804;DHT22;21924;51.934;7.414;2023-05-01T08:55:03;15.20;99.90
35804;DHT22;21924;51.934;7.414;2023-05-01T08:57:48;15.10;99.90
35804;DHT22;21924;51.934;7.414;2023-05-01T09:00:34;15.20;99.90
35804;DHT22;21924;51.934;7.414;2023-05-01T09:03:19;15.30;99.90
35804;DHT22;21924;51.934;7.414;2023-05-01T09:06:04;15.40;99.90
35804;DHT22;21924;51.934;7.414;2023-05-01T09:08:49;15.50;99.90
35804;DHT22;21924;51.934;7.414;2023-05-01T09:11:33;15.80;99.90
35804;DHT22;21924;51.934;7.414;2023-05-01T09:14:17;16.20;99.90
35804;DHT22;21924;51.934;7.414;2023-05-01T09:17:02;16.40;99.90
35804;DHT22;21924;51.934;7.414;2023-05-01T09:19:47;16.50;99.90
35804;DHT22;21924;51.934;7.414;2023-05-01T09:22:32;16.70;99.90
35804;DHT22;21924;51.934;7.414;2023-05-01T09:25:17;16.70;99.90
35804;DHT22;21924;51.934;7.414;2023-05-01T09:28:04;16.90;99.90
35804;DHT22;21924;51.934;7.414;2023-05-01T09:30:49;16.90;99.90
35804;DHT22;21924;51.934;7.414;2023-05-01T09:33:34;16.90;99.90
35804;DHT22;21924;51.934;7.414;2023-05-01T09:36:34;17.00;99.90
35804;DHT22;21924;51.934;7.414;2023-05-01T09:39:23;16.80;99.90
35804;DHT22;21924;51.934;7.414;2023-05-01T09:42:07;16.90;99.90
35804;DHT22;21924;51.934;7.414;2023-05-01T09:44:51;17.00;99.90
35804;DHT22;21924;51.934;7.414;2023-05-01T09:47:36;16.80;99.90
35804;DHT22;21924;51.934;7.414;2023-05-01T09:50:31;16.80;99.90
35804;DHT22;21924;51.934;7.414;2023-05-01T09:53:16;16.80;99.90
35804;DHT22;21924;51.934;7.414;2023-05-01T09:56:00;16.90;99.90
35804;DHT22;21924;51.934;7.414;2023-05-01T09:58:47;17.10;99.90
35804;DHT22;21924;51.934;7.414;2023-05-01T10:04:29;17.00;99.90
35804;DHT22;21924;51.934;7.414;2023-05-01T10:07:14;17.10;99.90
35804;DHT22;21924;51.934;7.414;2023-05-01T10:09:58;17.30;99.90
35804;DHT22;21924;51.934;7.414;2023-05-01T10:12:42;17.50;99.90
35804;DHT22;21924;51.934;7.414;2023-05-01T10:15:35;17.70;99.90
35804;DHT22;21924;51.934;7.414;2023-05-01T10:18:19;17.60;99.90
35804;DHT22;21924;51.934;7.414;2023-05-01T10:21:04;17.70;99.90
35804;DHT22;21924;51.934;7.414;2023-05-01T10:23:51;17.80;99.90
35804;DHT22;21924;51.934;7.414;2023-05-01T10:26:36;18.10;99.90
35804;DHT22;21924;51.934;7.414;2023-05-01T10:29:22;18.20;99.90
35804;DHT22;21924;51.934;7.414;2023-05-01T10:32:07;18.40;99.90
35804;DHT22;21924;51.934;7.414;2023-05-01T10:34:59;18.70;99.90
35804;DHT22;21924;51.934;7.414;2023-05-01T10:37:50;19.00;99.90
35804;DHT22;21924;51.934;7.414;2023-05-01T10:40:50;18.90;99.90
35804;DHT22;21924;51.934;7.414;2023-05-01T10:43:34;18.80;99.90
35804;DHT22;21924;51.934;7.414;2023-05-01T10:49:04;18.70;99.90
35804;DHT22;21924;51.934;7.414;2023-05-01T10:54:41;18.90;99.90
35804;DHT22;21924;51.934;7.414;2023-05-01T10:57:41;18.90;99.90
35804;DHT22;21924;51.934;7.414;2023-05-01T11:00:27;18.90;99.90
35804;DHT22;21924;51.934;7.414;2023-05-01T11:03:34;19.00;99.90
35804;DHT22;21924;51.934;7.414;2023-05-01T11:06:18;19.10;99.90
35804;DHT22;21924;51.934;7.414;2023-05-01T11:09:41;19.20;99.90
35804;DHT22;21924;51.934;7.414;2023-05-01T11:15:32;19.70;99.90
35804;DHT22;21924;51.934;7.414;2023-05-01T11:18:45;19.80;99.90
35804;DHT22;21924;51.934;7.414;2023-05-01T11:21:30;19.80;99.90
35804;DHT22;21924;51.934;7.414;2023-05-01T11:24:17;20.00;99.90
35804;DHT22;21924;51.934;7.414;2023-05-01T11:27:02;20.10;99.90
35804;DHT22;21924;51.934;7.414;2023-05-01T11:29:49;20.30;99.90
35804;DHT22;21924;51.934;7.414;2023-05-01T11:32:33;20.30;99.90
35804;DHT22;21924;51.934;7.414;2023-05-01T11:35:21;20.40;99.90
35804;DHT22;21924;51.934;7.414;2023-05-01T11:38:15;20.50;99.90
35804;DHT22;21924;51.934;7.414;2023-05-01T11:41:02;20.30;99.90
35804;DHT22;21924;51.934;7.414;2023-05-01T11:43:50;20.60;99.90
35804;DHT22;21924;51.934;7.414;2023-05-01T11:46:36;20.90;99.90
35804;DHT22;21924;51.934;7.414;2023-05-01T11:49:26;21.00;99.90
35804;DHT22;21924;51.934;7.414;2023-05-01T11:52:11;21.10;99.90
35804;DHT22;21924;51.934;7.414;2023-05-01T11:54:55;21.10;99.90
35804;DHT22;21924;51.934;7.414;2023-05-01T11:57:53;21.30;99.90
35804;DHT22;21924;51.934;7.414;2023-05-01T12:00:39;21.60;99.90
35804;DHT22;21924;51.934;7.414;2023-05-01T12:03:24;21.40;99.90
35804;DHT22;21924;51.934;7.414;2023-05-01T12:06:12;21.30;99.90
35804;DHT22;21924;51.934;7.414;2023-05-01T12:08:56;21.20;99.90
35804;DHT22;21924;51.934;7.414;2023-05-01T12:11:41;20.30;99.90
35804;DHT22;21924;51.934;7.414;2023-05-01T12:14:26;20.40;99.90
35804;DHT22;21924;51.934;7.414;2023-05-01T12:17:10;20.70;99.90
35804;DHT22;21924;51.934;7.414;2023-05-01T12:19:54;20.90;99.90
35804;DHT22;21924;51.934;7.414;2023-05-01T12:22:50;21.20;99.90
35804;DHT22;21924;51.934;7.414;2023-05-01T12:25:35;21.40;99.90
35804;DHT22;21924;51.934;7.414;2023-05-01T12:28:19;21.40;99.90
35804;DHT22;21924;51.934;7.414;2023-05-01T12:31:04;21.10;99.90
35804;DHT22;21924;51.934;7.414;2023-05-01T12:36:40;20.80;99.90
35804;DHT22;21924;51.934;7.414;2023-05-01T12:39:25;20.70;99.90
35804;DHT22;21924;51.934;7.414;2023-05-01T12:42:13;20.70;99.90
35804;DHT22;21924;51.934;7.414;2023-05-01T12:45:00;20.60;99.90
35804;DHT22;21924;51.934;7.414;2023-05-01T12:47:44;20.40;99.90
35804;DHT22;21924;51.934;7.414;2023-05-01T12:50:35;20.30;99.90
35804;DHT22;21924;51.934;7.414;2023-05-01T12:53:21;20.10;99.90
35804;DHT22;21924;51.934;7.414;2023-05-01T12:56:06;19.90;99.90
35804;DHT22;21924;51.934;7.414;2023-05-01T12:58:51;19.70;99.90
35804;DHT22;21924;51.934;7.414;2023-05-01T13:01:36;19.60;99.90
35804;DHT22;21924;51.934;7.414;2023-05-01T13:04:21;19.50;99.90
35804;DHT22;21924;51.934;7.414;2023-05-01T13:07:16;19.50;99.90
35804;DHT22;21924;51.934;7.414;2023-05-01T13:10:01;19.50;99.90
35804;DHT22;21924;51.934;7.414;2023-05-01T13:12:46;19.60;99.90
35804;DHT22;21924;51.934;7.414;2023-05-01T13:15:30;19.60;99.90
35804;DHT22;21924;51.934;7.414;2023-05-01T13:18:15;19.70;99.90
35804;DHT22;21924;51.934;7.414;2023-05-01T13:21:07;19.90;99.90
35804;DHT22;21924;51.934;7.414;2023-05-01T13:23:54;20.00;99.90
35804;DHT22;21924;51.934;7.414;2023-05-01T13:26:39;20.10;99.90
35804;DHT22;21924;51.934;7.414;2023-05-01T13:29:23;20.10;99.90
35804;DHT22;21924;51.934;7.414;2023-05-01T13:32:09;20.50;99.90
35804;DHT22;21924;51.934;7.414;2023-05-01T13:34:54;20.60;99.90
35804;DHT22;21924;51.934;7.414;2023-05-01T13:37:39;20.60;99.90
35804;DHT22;21924;51.934;7.414;2023-05-01T13:40:25;20.40;99.90
35804;DHT22;21924;51.934;7.414;2023-05-01T13:43:13;20.30;99.90
35804;DHT22;21924;51.934;7.414;2023-05-01T13:45:59;20.10;99.90
35804;DHT22;21924;51.934;7.414;2023-05-01T13:48:43;19.90;99.90
35804;DHT22;21924;51.934;7.414;2023-05-01T13:51:29;19.80;99.90
35804;DHT22;21924;51.934;7.414;2023-05-01T13:54:15;19.80;99.90
35804;DHT22;21924;51.934;7.414;2023-05-01T13:57:00;19.70;99.90
35804;DHT22;21924;51.934;7.414;2023-05-01T13:59:45;20.00;99.90
35804;DHT22;21924;51.934;7.414;2023-05-01T14:02:30;20.40;99.90
35804;DHT22;21924;51.934;7.414;2023-05-01T14:05:15;20.40;99.90
35804;DHT22;21924;51.934;7.414;2023-05-01T14:08:00;20.30;99.90
35804;DHT22;21924;51.934;7.414;2023-05-01T14:10:45;20.30;99.90
35804;DHT22;21924;51.934;7.414;2023-05-01T14:13:29;20.10;99.90
35804;DHT22;21924;51.934;7.414;2023-05-01T14:16:25;20.00;99.90
35804;DHT22;21924;51.934;7.414;2023-05-01T14:19:09;19.90;99.90
35804;DHT22;21924;51.934;7.414;2023-05-01T14:21:58;19.70;99.90
35804;DHT22;21924;51.934;7.414;2023-05-01T14:24:42;19.50;99.90
35804;DHT22;21924;51.934;7.414;2023-05-01T14:27:27;19.40;99.90
35804;DHT22;21924;51.934;7.414;2023-05-01T14:30:18;19.30;99.90
35804;DHT22;21924;51.934;7.414;2023-05-01T14:33:09;19.10;99.90
35804;DHT22;21924;51.934;7.414;2023-05-01T14:35:54;19.10;99.90
35804;DHT22;21924;51.934;7.414;2023-05-01T14:38:38;19.50;99.90
35804;DHT22;21924;51.934;7.414;2023-05-01T14:41:24;20.70;99.90
35804;DHT22;21924;51.934;7.414;2023-05-01T14:44:16;22.30;99.90
35804;DHT22;21924;51.934;7.414;2023-05-01T14:47:01;23.60;99.90
35804;DHT22;21924;51.934;7.414;2023-05-01T14:49:52;23.30;99.90
35804;DHT22;21924;51.934;7.414;2023-05-01T14:52:38;22.60;99.90
35804;DHT22;21924;51.934;7.414;2023-05-01T14:55:30;21.80;99.90
35804;DHT22;21924;51.934;7.414;2023-05-01T14:58:17;21.20;99.90
35804;DHT22;21924;51.934;7.414;2023-05-01T15:01:02;20.70;99.90
35804;DHT22;21924;51.934;7.414;2023-05-01T15:03:46;20.40;99.90
35804;DHT22;21924;51.934;7.414;2023-05-01T15:06:31;20.10;99.90
35804;DHT22;21924;51.934;7.414;2023-05-01T15:09:16;19.80;99.90
35804;DHT22;21924;51.934;7.414;2023-05-01T15:12:00;19.60;99.90
35804;DHT22;21924;51.934;7.414;2023-05-01T15:14:46;19.40;99.90
35804;DHT22;21924;51.934;7.414;2023-05-01T15:17:30;19.40;99.90
35804;DHT22;21924;51.934;7.414;2023-05-01T15:20:14;19.50;99.90
35804;DHT22;21924;51.934;7.414;2023-05-01T15:22:58;19.60;99.90
35804;DHT22;21924;51.934;7.414;2023-05-01T15:25:43;19.60;99.90
35804;DHT22;21924;51.934;7.414;2023-05-01T15:28:27;19.50;99.90
35804;DHT22;21924;51.934;7.414;2023-05-01T15:31:12;19.50;99.90
35804;DHT22;21924;51.934;7.414;2023-05-01T15:33:56;19.50;99.90
35804;DHT22;21924;51.934;7.414;2023-05-01T15:36:41;19.30;99.90
35804;DHT22;21924;51.934;7.414;2023-05-01T15:39:25;19.20;99.90
35804;DHT22;21924;51.934;7.414;2023-05-01T15:42:09;19.00;99.90
35804;DHT22;21924;51.934;7.414;2023-05-01T15:44:54;19.00;99.90
35804;DHT22;21924;51.934;7.414;2023-05-01T15:47:38;18.80;99.90
35804;DHT22;21924;51.934;7.414;2023-05-01T15:50:22;18.70;99.90
35804;DHT22;21924;51.934;7.414;2023-05-01T15:53:06;18.70;99.90
35804;DHT22;21924;51.934;7.414;2023-05-01T15:55:55;18.80;99.90
35804;DHT22;21924;51.934;7.414;2023-05-01T15:58:40;18.80;99.90
35804;DHT22;21924;51.934;7.414;2023-05-01T16:01:24;18.70;99.90
35804;DHT22;21924;51.934;7.414;2023-05-01T16:04:09;18.60;99.90
35804;DHT22;21924;51.934;7.414;2023-05-01T16:06:53;18.30;99.90
35804;DHT22;21924;51.934;7.414;2023-05-01T16:09:38;17.90;99.90
35804;DHT22;21924;51.934;7.414;2023-05-01T16:12:22;17.80;99.90
35804;DHT22;21924;51.934;7.414;2023-05-01T16:15:07;17.50;99.90
35804;DHT22;21924;51.934;7.414;2023-05-01T16:17:51;17.20;99.90
35804;DHT22;21924;51.934;7.414;2023-05-01T16:20:40;17.00;99.90
35804;DHT22;21924;51.934;7.414;2023-05-01T16:23:26;16.40;99.90
35804;DHT22;21924;51.934;7.414;2023-05-01T16:26:10;15.90;99.90
35804;DHT22;21924;51.934;7.414;2023-05-01T16:29:00;15.40;99.90
35804;DHT22;21924;51.934;7.414;2023-05-01T16:31:44;14.90;99.90
35804;DHT22;21924;51.934;7.414;2023-05-01T16:34:30;14.50;99.90
35804;DHT22;21924;51.934;7.414;2023-05-01T16:37:15;14.20;99.90
35804;DHT22;21924;51.934;7.414;2023-05-01T16:40:00;14.00;99.90
35804;DHT22;21924;51.934;7.414;2023-05-01T16:42:51;13.70;99.90
35804;DHT22;21924;51.934;7.414;2023-05-01T16:45:37;13.50;99.90
35804;DHT22;21924;51.934;7.414;2023-05-01T16:48:22;13.30;99.90
35804;DHT22;21924;51.934;7.414;2023-05-01T16:51:08;13.10;99.90
35804;DHT22;21924;51.934;7.414;2023-05-01T16:53:52;13.00;99.90
35804;DHT22;21924;51.934;7.414;2023-05-01T16:56:37;12.80;99.90
35804;DHT22;21924;51.934;7.414;2023-05-01T16:59:21;12.60;99.90
35804;DHT22;21924;51.934;7.414;2023-05-01T17:02:06;12.60;99.90
35804;DHT22;21924;51.934;7.414;2023-05-01T17:04:50;12.50;99.90
35804;DHT22;21924;51.934;7.414;2023-05-01T17:07:34;12.50;99.90
35804;DHT22;21924;51.934;7.414;2023-05-01T17:10:19;12.60;99.90
35804;DHT22;21924;51.934;7.414;2023-05-01T17:13:03;12.50;99.90
35804;DHT22;21924;51.934;7.414;2023-05-01T17:15:47;12.50;99.90
35804;DHT22;21924;51.934;7.414;2023-05-01T17:18:31;12.60;99.90
35804;DHT22;21924;51.934;7.414;2023-05-01T17:21:16;12.60;99.90
35804;DHT22;21924;51.934;7.414;2023-05-01T17:24:00;12.60;99.90
35804;DHT22;21924;51.934;7.414;2023-05-01T17:26:45;12.60;99.90
35804;DHT22;21924;51.934;7.414;2023-05-01T17:29:29;12.60;99.90
35804;DHT22;21924;51.934;7.414;2023-05-01T17:32:13;12.60;99.90
35804;DHT22;21924;51.934;7.414;2023-05-01T17:34:58;12.60;99.90
35804;DHT22;21924;51.934;7.414;2023-05-01T17:37:42;12.50;99.90
35804;DHT22;21924;51.934;7.414;2023-05-01T17:40:27;12.50;99.90
35804;DHT22;21924;51.934;7.414;2023-05-01T17:43:12;12.40;99.90
35804;DHT22;21924;51.934;7.414;2023-05-01T17:45:56;12.40;99.90
35804;DHT22;21924;51.934;7.414;2023-05-01T17:48:40;12.40;99.90
35804;DHT22;21924;51.934;7.414;2023-05-01T17:51:25;12.50;99.90
35804;DHT22;21924;51.934;7.414;2023-05-01T17:54:09;12.50;99.90